Time;durP1;ratioP1;P1;durP2;ratioP2;P2;SDS_P1;SDS_P2;PMS_P1;PMS_P2;Temp;Humidity;BMP_temperature;BMP_pressure;BME280_temperature;BME280_humidity;BME280_pressure;Samples;Min_cycle;Max_cycle;Signal;HPM_P1;HPM_P2
2023/04/28 00:01:52;;;;;;;3.97;2.53;;;;;;;;;;5013278;28;20286;-86
2023/04/28 00:04:19;;;;;;;2.75;2.55;;;;;;;;;;5012987;28;20258;-85
2023/04/28 00:06:48;;;;;;;3.50;3.20;;;;;;;;;;5012969;28;20285;-86
2023/04/28 00:09:15;;;;;;;3.30;3.03;;;;;;;;;;5012516;28;20237;-85
2023/04/28 00:11:45;;;;;;;3.45;2.75;;;;;;;;;;5013057;28;20257;-86
2023/04/28 00:14:13;;;;;;;4.13;2.83;;;;;;;;;;5012969;28;20227;-86
2023/04/28 00:16:41;;;;;;;4.30;2.75;;;;;;;;;;5007684;28;20210;-86
2023/04/28 00:19:08;;;;;;;2.70;2.50;;;;;;;;;;4993340;28;20679;-86
2023/04/28 00:21:36;;;;;;;4.35;2.88;;;;;;;;;;4994101;28;20207;-86
2023/04/28 00:24:05;;;;;;;3.60;3.00;;;;;;;;;;4997178;28;20195;-87
2023/04/28 00:26:33;;;;;;;2.72;2.47;;;;;;;;;;4997260;28;20313;-86
2023/04/28 00:29:00;;;;;;;3.08;2.78;;;;;;;;;;4997043;28;20291;-86
2023/04/28 00:31:27;;;;;;;4.38;3.35;;;;;;;;;;4997759;28;20214;-86
2023/04/28 00:33:55;;;;;;;3.88;3.38;;;;;;;;;;4996994;28;20270;-86
2023/04/28 00:36:22;;;;;;;3.75;2.90;;;;;;;;;;4996681;28;20239;-86
2023/04/28 00:38:50;;;;;;;4.15;2.85;;;;;;;;;;4996988;28;20282;-86
2023/04/28 00:41:19;;;;;;;3.28;3.00;;;;;;;;;;4996826;28;20286;-87
2023/04/28 00:43:47;;;;;;;4.03;3.10;;;;;;;;;;4997149;28;20741;-87
2023/04/28 00:46:24;;;;;;;2.85;2.50;;;;;;;;;;4999102;28;20314;-86
2023/04/28 00:48:52;;;;;;;3.15;2.70;;;;;;;;;;5016235;28;20202;-86
2023/04/28 00:51:20;;;;;;;3.03;2.70;;;;;;;;;;5016823;28;20281;-86
2023/04/28 00:53:47;;;;;;;2.90;2.60;;;;;;;;;;5016724;28;20206;-87
2023/04/28 00:56:15;;;;;;;2.80;2.60;;;;;;;;;;5016105;28;20211;-86
2023/04/28 00:58:44;;;;;;;2.97;2.67;;;;;;;;;;5016330;28;20265;-87
2023/04/28 01:01:11;;;;;;;3.30;2.45;;;;;;;;;;5016237;28;20633;-86
2023/04/28 01:03:40;;;;;;;2.60;2.40;;;;;;;;;;5016177;28;20199;-85
2023/04/28 01:06:10;;;;;;;2.60;2.22;;;;;;;;;;5016317;28;20313;-86
2023/04/28 01:08:39;;;;;;;2.60;2.40;;;;;;;;;;5016400;28;20203;-86
2023/04/28 01:11:06;;;;;;;1.90;1.80;;;;;;;;;;5016040;28;20199;-86
2023/04/28 01:13:34;;;;;;;2.38;2.17;;;;;;;;;;5016276;28;20206;-87
2023/04/28 01:16:03;;;;;;;2.88;2.10;;;;;;;;;;5015825;28;20219;-87
2023/04/28 01:18:32;;;;;;;3.33;2.13;;;;;;;;;;5015699;28;20293;-86
2023/04/28 01:20:59;;;;;;;2.40;2.28;;;;;;;;;;5015959;28;20309;-86
2023/04/28 01:23:27;;;;;;;1.90;1.80;;;;;;;;;;5016371;28;20213;-86
2023/04/28 01:25:57;;;;;;;2.20;2.00;;;;;;;;;;5015630;28;20310;-86
2023/04/28 01:28:24;;;;;;;3.40;2.53;;;;;;;;;;5015604;28;20206;-86
2023/04/28 01:30:52;;;;;;;2.75;2.20;;;;;;;;;;5015694;28;20290;-85
2023/04/28 01:33:19;;;;;;;2.78;2.58;;;;;;;;;;5015294;28;20289;-86
2023/04/28 01:35:46;;;;;;;2.72;2.53;;;;;;;;;;5015243;28;20218;-86
2023/04/28 01:38:14;;;;;;;2.72;2.47;;;;;;;;;;5015503;28;20238;-86
2023/04/28 01:40:42;;;;;;;4.10;2.65;;;;;;;;;;5016074;28;20206;-86
2023/04/28 01:43:10;;;;;;;3.60;2.47;;;;;;;;;;5015381;28;20723;-86
2023/04/28 01:45:38;;;;;;;2.17;2.05;;;;;;;;;;5015569;28;20262;-86
2023/04/28 01:48:06;;;;;;;2.50;2.25;;;;;;;;;;5014749;28;20245;-87
2023/04/28 01:50:33;;;;;;;2.42;2.22;;;;;;;;;;5015628;28;20724;-87
2023/04/28 01:53:01;;;;;;;3.30;3.00;;;;;;;;;;5015458;28;20290;-86
2023/04/28 01:55:28;;;;;;;2.35;2.13;;;;;;;;;;5015674;28;20313;-86
2023/04/28 01:57:56;;;;;;;2.58;2.38;;;;;;;;;;5015161;28;20222;-86
2023/04/28 02:00:26;;;;;;;3.17;2.55;;;;;;;;;;5015447;28;20329;-85
2023/04/28 02:02:53;;;;;;;3.75;2.75;;;;;;;;;;5015157;28;20207;-86
2023/04/28 02:05:21;;;;;;;2.50;2.30;;;;;;;;;;5014812;28;20305;-86
2023/04/28 02:07:48;;;;;;;4.20;2.70;;;;;;;;;;5014357;28;20250;-87
2023/04/28 02:10:16;;;;;;;4.95;3.13;;;;;;;;;;5015380;28;20679;-86
2023/04/28 02:12:43;;;;;;;2.05;1.90;;;;;;;;;;5015416;28;20203;-86
2023/04/28 02:15:11;;;;;;;3.08;2.80;;;;;;;;;;5014603;28;20309;-86
2023/04/28 02:17:40;;;;;;;2.67;2.42;;;;;;;;;;5014875;28;20576;-85
2023/04/28 02:20:09;;;;;;;3.42;2.60;;;;;;;;;;5014812;28;20286;-86
2023/04/28 02:22:37;;;;;;;2.53;2.33;;;;;;;;;;5014725;28;20294;-86
2023/04/28 02:25:05;;;;;;;3.50;2.40;;;;;;;;;;5014600;28;20802;-86
2023/04/28 02:27:33;;;;;;;2.15;2.05;;;;;;;;;;5014294;28;20219;-86
2023/04/28 02:30:01;;;;;;;2.47;2.28;;;;;;;;;;5014443;28;20242;-86
2023/04/28 02:32:28;;;;;;;2.97;2.28;;;;;;;;;;5014226;28;20206;-85
2023/04/28 02:34:57;;;;;;;4.97;3.03;;;;;;;;;;5014047;28;20258;-86
2023/04/28 02:37:25;;;;;;;2.92;2.40;;;;;;;;;;5014722;28;20227;-86
2023/04/28 02:39:52;;;;;;;3.10;2.38;;;;;;;;;;5014492;28;20665;-86
2023/04/28 02:42:20;;;;;;;2.70;2.50;;;;;;;;;;5014334;28;20234;-87
2023/04/28 02:44:47;;;;;;;2.80;2.33;;;;;;;;;;5013523;28;20223;-85
2023/04/28 02:47:15;;;;;;;1.83;1.73;;;;;;;;;;5014264;28;20231;-86
2023/04/28 02:49:42;;;;;;;2.47;2.28;;;;;;;;;;5014158;28;20580;-86
2023/04/28 02:52:11;;;;;;;2.42;2.22;;;;;;;;;;5014234;28;20233;-86
2023/04/28 02:54:38;;;;;;;3.75;2.42;;;;;;;;;;5014278;28;20235;-86
2023/04/28 02:57:06;;;;;;;2.83;2.63;;;;;;;;;;5014439;28;20226;-86
2023/04/28 02:59:34;;;;;;;3.15;2.67;;;;;;;;;;5014187;28;20297;-86
2023/04/28 03:02:01;;;;;;;2.17;1.98;;;;;;;;;;5013959;28;20210;-86
2023/04/28 03:04:29;;;;;;;2.35;2.15;;;;;;;;;;5013978;28;20233;-86
2023/04/28 03:06:57;;;;;;;2.33;2.13;;;;;;;;;;5014197;28;20317;-86
2023/04/28 03:09:25;;;;;;;2.05;1.90;;;;;;;;;;5013492;28;20239;-86
2023/04/28 03:11:53;;;;;;;2.17;2.03;;;;;;;;;;5013943;28;20286;-86
2023/04/28 03:14:20;;;;;;;2.00;1.90;;;;;;;;;;5013379;28;20656;-86
2023/04/28 03:16:48;;;;;;;2.40;2.17;;;;;;;;;;5013747;28;20289;-86
2023/04/28 03:19:15;;;;;;;2.63;2.45;;;;;;;;;;5013491;28;20289;-86
2023/04/28 03:21:43;;;;;;;4.40;3.00;;;;;;;;;;5013305;28;20231;-86
2023/04/28 03:24:10;;;;;;;4.25;2.70;;;;;;;;;;5013345;28;20309;-86
2023/04/28 03:26:39;;;;;;;3.17;2.88;;;;;;;;;;5013565;28;20229;-87
2023/04/28 03:29:07;;;;;;;2.85;2.53;;;;;;;;;;5012872;28;20649;-86
2023/04/28 03:31:34;;;;;;;3.63;2.95;;;;;;;;;;5013449;28;20289;-86
2023/04/28 03:34:03;;;;;;;5.13;3.15;;;;;;;;;;5013403;28;20214;-86
2023/04/28 03:36:30;;;;;;;2.50;2.30;;;;;;;;;;5013064;28;20210;-87
2023/04/28 03:38:58;;;;;;;3.63;2.55;;;;;;;;;;5013730;28;20656;-87
2023/04/28 03:41:25;;;;;;;2.65;2.45;;;;;;;;;;5013508;28;20712;-87
2023/04/28 03:43:55;;;;;;;3.80;3.47;;;;;;;;;;5013255;28;20610;-86
2023/04/28 03:46:23;;;;;;;4.25;3.58;;;;;;;;;;5013310;28;20207;-85
2023/04/28 03:48:50;;;;;;;3.33;3.05;;;;;;;;;;5012854;28;20233;-87
2023/04/28 03:51:18;;;;;;;3.70;3.00;;;;;;;;;;5013596;28;20628;-86
2023/04/28 03:53:45;;;;;;;3.70;3.40;;;;;;;;;;5013408;28;20256;-87
2023/04/28 03:56:13;;;;;;;2.65;2.45;;;;;;;;;;5012945;28;20257;-86
2023/04/28 03:58:40;;;;;;;3.35;3.05;;;;;;;;;;5012827;28;20584;-87
2023/04/28 04:01:09;;;;;;;6.15;3.00;;;;;;;;;;5012871;28;20227;-85
2023/04/28 04:03:37;;;;;;;3.15;2.85;;;;;;;;;;5012989;28;20253;-86
2023/04/28 04:06:05;;;;;;;3.20;2.90;;;;;;;;;;5013285;28;20242;-87
2023/04/28 04:08:32;;;;;;;2.47;2.28;;;;;;;;;;5012590;28;20768;-87
2023/04/28 04:11:00;;;;;;;2.70;2.50;;;;;;;;;;5013318;28;20214;-86
2023/04/28 04:13:27;;;;;;;2.53;2.33;;;;;;;;;;5013374;28;20298;-86
2023/04/28 04:15:55;;;;;;;2.90;2.70;;;;;;;;;;5013226;28;20309;-86
2023/04/28 04:18:24;;;;;;;3.38;2.70;;;;;;;;;;5012662;28;20695;-86
2023/04/28 04:20:52;;;;;;;2.97;2.67;;;;;;;;;;5012792;28;20204;-85
2023/04/28 04:23:20;;;;;;;2.85;2.55;;;;;;;;;;5013036;28;20195;-86
2023/04/28 04:25:47;;;;;;;2.60;2.33;;;;;;;;;;5013274;28;20739;-85
2023/04/28 04:28:15;;;;;;;2.88;2.67;;;;;;;;;;5012876;28;20305;-86
2023/04/28 04:30:43;;;;;;;3.88;3.28;;;;;;;;;;5013267;28;20209;-85
2023/04/28 04:33:11;;;;;;;3.50;3.20;;;;;;;;;;5012835;28;20203;-86
2023/04/28 04:35:40;;;;;;;3.45;3.15;;;;;;;;;;5012922;28;20310;-87
2023/04/28 04:38:07;;;;;;;4.22;3.22;;;;;;;;;;5012677;28;20231;-87
2023/04/28 04:40:35;;;;;;;3.53;3.00;;;;;;;;;;5012647;28;20238;-86
2023/04/28 04:43:02;;;;;;;3.15;2.90;;;;;;;;;;5013199;28;20234;-86
2023/04/28 04:45:31;;;;;;;2.90;2.60;;;;;;;;;;5012849;28;20599;-86
2023/04/28 04:47:58;;;;;;;3.33;2.72;;;;;;;;;;5012673;28;20322;-86
2023/04/28 04:50:26;;;;;;;3.10;2.47;;;;;;;;;;5012644;28;20257;-87
2023/04/28 04:52:56;;;;;;;2.83;2.63;;;;;;;;;;5012944;28;20264;-87
2023/04/28 04:55:23;;;;;;;2.85;2.65;;;;;;;;;;5012810;28;20739;-86
2023/04/28 04:57:51;;;;;;;3.22;2.88;;;;;;;;;;5012367;28;20309;-86
2023/04/28 05:00:20;;;;;;;2.97;2.70;;;;;;;;;;5012719;28;20266;-85
2023/04/28 05:02:47;;;;;;;2.33;2.17;;;;;;;;;;5012623;28;20548;-86
2023/04/28 05:05:15;;;;;;;3.95;2.83;;;;;;;;;;5012649;28;20251;-86
2023/04/28 05:07:43;;;;;;;3.75;2.67;;;;;;;;;;5013390;28;20315;-85
2023/04/28 05:10:12;;;;;;;3.58;2.97;;;;;;;;;;5016688;28;20676;-85
2023/04/28 05:12:40;;;;;;;4.05;3.47;;;;;;;;;;5016763;28;20626;-86
2023/04/28 05:15:08;;;;;;;3.08;2.78;;;;;;;;;;5016171;28;20238;-86
2023/04/28 05:17:36;;;;;;;2.83;2.50;;;;;;;;;;5016314;28;20633;-86
2023/04/28 05:20:04;;;;;;;3.50;3.28;;;;;;;;;;5016312;28;20584;-86
2023/04/28 05:22:31;;;;;;;4.15;3.55;;;;;;;;;;5016837;28;20202;-86
2023/04/28 05:24:59;;;;;;;6.15;3.45;;;;;;;;;;5016294;28;20290;-85
2023/04/28 05:27:28;;;;;;;3.22;2.95;;;;;;;;;;5016259;28;20256;-86
2023/04/28 05:29:55;;;;;;;5.97;2.90;;;;;;;;;;5016764;28;20289;-86
2023/04/28 05:32:23;;;;;;;3.03;2.80;;;;;;;;;;5016212;28;20286;-85
2023/04/28 05:34:50;;;;;;;3.40;3.03;;;;;;;;;;5016491;28;20306;-85
2023/04/28 05:37:18;;;;;;;2.83;2.63;;;;;;;;;;5016198;28;20270;-86
2023/04/28 05:39:45;;;;;;;4.43;3.00;;;;;;;;;;5016081;28;20290;-86
2023/04/28 05:42:13;;;;;;;3.40;3.10;;;;;;;;;;5015434;28;20203;-87
2023/04/28 05:44:41;;;;;;;4.18;3.33;;;;;;;;;;5015366;28;20233;-87
2023/04/28 05:47:09;;;;;;;3.33;3.03;;;;;;;;;;5015557;28;20294;-87
2023/04/28 05:49:36;;;;;;;3.38;3.17;;;;;;;;;;5015318;28;20759;-87
2023/04/28 05:52:04;;;;;;;4.22;3.63;;;;;;;;;;5015590;28;20209;-87
2023/04/28 05:54:33;;;;;;;8.60;4.03;;;;;;;;;;5015717;28;20747;-88
2023/04/28 05:57:01;;;;;;;6.35;4.25;;;;;;;;;;5015389;28;20205;-87
2023/04/28 05:59:29;;;;;;;5.72;4.05;;;;;;;;;;5018195;28;20217;-87
2023/04/28 06:01:58;;;;;;;4.07;3.78;;;;;;;;;;5015722;28;20203;-87
2023/04/28 06:04:25;;;;;;;7.22;5.47;;;;;;;;;;5015492;28;20305;-88
2023/04/28 06:06:53;;;;;;;4.43;3.80;;;;;;;;;;5015766;28;20230;-87
2023/04/28 06:09:20;;;;;;;4.10;3.80;;;;;;;;;;5014445;28;20246;-87
2023/04/28 06:11:48;;;;;;;7.22;4.00;;;;;;;;;;5015364;28;20206;-87
2023/04/28 06:14:16;;;;;;;6.00;3.95;;;;;;;;;;5015186;28;20239;-87
2023/04/28 06:16:43;;;;;;;5.28;4.72;;;;;;;;;;5015280;28;20210;-87
2023/04/28 06:19:13;;;;;;;4.45;3.90;;;;;;;;;;5013907;28;20307;-87
2023/04/28 06:21:41;;;;;;;3.88;3.47;;;;;;;;;;5015019;28;20648;-88
2023/04/28 06:24:08;;;;;;;3.75;3.45;;;;;;;;;;5015465;28;20199;-88
2023/04/28 06:26:36;;;;;;;5.07;4.07;;;;;;;;;;5015026;28;20298;-88
2023/04/28 06:29:03;;;;;;;4.50;4.10;;;;;;;;;;5014982;28;20734;-87
2023/04/28 06:31:31;;;;;;;5.38;3.95;;;;;;;;;;5015184;28;20213;-87
2023/04/28 06:33:58;;;;;;;4.45;4.05;;;;;;;;;;5014848;28;20195;-88
2023/04/28 06:36:27;;;;;;;4.32;3.92;;;;;;;;;;5014532;28;20238;-87
2023/04/28 06:38:55;;;;;;;3.53;3.22;;;;;;;;;;5014668;28;20207;-88
2023/04/28 06:41:22;;;;;;;3.95;3.60;;;;;;;;;;5015037;28;20199;-87
2023/04/28 06:43:50;;;;;;;6.18;4.72;;;;;;;;;;5014715;28;20200;-88
2023/04/28 06:46:17;;;;;;;4.55;4.15;;;;;;;;;;5014044;28;20207;-88
2023/04/28 06:48:45;;;;;;;5.88;3.25;;;;;;;;;;5014270;28;20231;-87
2023/04/28 06:51:12;;;;;;;4.03;3.67;;;;;;;;;;5014065;28;20294;-87
2023/04/28 06:53:41;;;;;;;5.10;4.10;;;;;;;;;;5014287;28;20282;-87
2023/04/28 06:56:09;;;;;;;5.55;4.07;;;;;;;;;;5014210;28;20703;-87
2023/04/28 06:58:36;;;;;;;5.25;3.97;;;;;;;;;;5013867;28;20298;-87
2023/04/28 07:01:05;;;;;;;3.83;3.53;;;;;;;;;;5014639;28;20202;-88
2023/04/28 07:03:43;;;;;;;3.75;3.30;;;;;;;;;;5014334;28;20250;-87
2023/04/28 07:06:11;;;;;;;3.90;3.60;;;;;;;;;;5014488;28;20218;-87
2023/04/28 07:08:41;;;;;;;4.70;4.30;;;;;;;;;;5014224;28;20542;-87
2023/04/28 07:11:08;;;;;;;5.68;4.65;;;;;;;;;;5014155;28;20293;-88
2023/04/28 07:13:36;;;;;;;4.90;4.35;;;;;;;;;;5013713;28;20338;-87
2023/04/28 07:16:04;;;;;;;6.97;5.20;;;;;;;;;;5013659;28;20314;-87
2023/04/28 07:18:32;;;;;;;9.70;6.43;;;;;;;;;;5013423;28;20298;-87
2023/04/28 07:20:59;;;;;;;4.80;4.20;;;;;;;;;;5013556;28;20231;-87
2023/04/28 07:23:27;;;;;;;6.18;4.75;;;;;;;;;;5014212;28;20238;-87
2023/04/28 07:25:55;;;;;;;4.53;4.13;;;;;;;;;;5013885;28;20219;-88
2023/04/28 07:28:23;;;;;;;6.18;5.57;;;;;;;;;;5014105;28;20273;-88
2023/04/28 07:30:50;;;;;;;6.45;5.60;;;;;;;;;;5013346;28;20227;-87
2023/04/28 07:33:18;;;;;;;4.53;3.95;;;;;;;;;;5013728;28;20230;-87
2023/04/28 07:35:46;;;;;;;5.80;4.68;;;;;;;;;;5014062;28;20676;-87
2023/04/28 07:38:14;;;;;;;5.00;4.28;;;;;;;;;;5013486;28;20210;-87
2023/04/28 07:40:43;;;;;;;4.63;4.15;;;;;;;;;;5013739;28;20209;-87
2023/04/28 07:43:12;;;;;;;5.65;5.15;;;;;;;;;;5013690;28;20578;-87
2023/04/28 07:45:40;;;;;;;6.13;4.93;;;;;;;;;;5012962;28;20306;-87
2023/04/28 07:48:08;;;;;;;5.25;4.78;;;;;;;;;;5013472;28;20275;-89
2023/04/28 07:50:35;;;;;;;5.65;5.15;;;;;;;;;;5013321;28;20231;-87
2023/04/28 07:53:03;;;;;;;5.60;5.10;;;;;;;;;;5013494;28;20246;-88
2023/04/28 07:55:30;;;;;;;6.30;5.60;;;;;;;;;;5013393;28;20409;-88
2023/04/28 07:57:58;;;;;;;5.80;5.30;;;;;;;;;;5012895;28;20238;-88
2023/04/28 08:00:27;;;;;;;6.30;5.60;;;;;;;;;;5013595;28;20202;-88
2023/04/28 08:02:55;;;;;;;5.75;5.25;;;;;;;;;;5013646;28;20635;-87
2023/04/28 08:05:23;;;;;;;7.40;5.10;;;;;;;;;;5013299;28;20293;-87
2023/04/28 08:07:50;;;;;;;6.88;5.03;;;;;;;;;;5012828;28;20293;-88
2023/04/28 08:10:18;;;;;;;5.95;5.35;;;;;;;;;;5012993;28;20313;-87
2023/04/28 08:12:45;;;;;;;8.30;6.32;;;;;;;;;;5013181;28;20213;-88
2023/04/28 08:15:13;;;;;;;6.97;5.80;;;;;;;;;;5013166;28;20247;-88
2023/04/28 08:17:42;;;;;;;5.88;4.95;;;;;;;;;;5012830;28;20231;-88
2023/04/28 08:20:10;;;;;;;8.85;6.68;;;;;;;;;;5013007;28;20740;-87
2023/04/28 08:22:38;;;;;;;6.47;5.55;;;;;;;;;;5013362;28;20632;-88
2023/04/28 08:25:07;;;;;;;6.68;5.90;;;;;;;;;;5012985;28;20359;-87
2023/04/28 08:27:36;;;;;;;9.18;5.78;;;;;;;;;;5013296;28;20560;-87
2023/04/28 08:30:05;;;;;;;6.72;5.18;;;;;;;;;;5013171;28;20222;-88
2023/04/28 08:32:32;;;;;;;5.03;4.60;;;;;;;;;;5013259;28;20285;-87
2023/04/28 08:35:01;;;;;;;6.20;5.60;;;;;;;;;;5012989;28;20211;-87
2023/04/28 08:37:29;;;;;;;5.15;4.65;;;;;;;;;;5013465;28;20203;-86
2023/04/28 08:40:01;;;;;;;5.68;5.13;;;;;;;;;;5012962;28;20294;-87
2023/04/28 08:42:30;;;;;;;5.60;5.05;;;;;;;;;;5013324;28;20209;-87
2023/04/28 08:44:59;;;;;;;6.57;5.15;;;;;;;;;;5017182;28;20288;-88
2023/04/28 08:47:33;;;;;;;5.72;5.18;;;;;;;;;;5016671;28;20211;-87
2023/04/28 08:50:05;;;;;;;6.28;5.47;;;;;;;;;;5016371;28;20222;-86
2023/04/28 08:52:33;;;;;;;5.82;4.75;;;;;;;;;;5016828;28;20215;-87
2023/04/28 08:55:02;;;;;;;5.38;4.35;;;;;;;;;;5016309;28;20389;-87
2023/04/28 08:57:38;;;;;;;4.47;4.07;;;;;;;;;;5016618;28;20755;-87
2023/04/28 09:00:07;;;;;;;5.30;4.00;;;;;;;;;;5016782;28;20699;-87
2023/04/28 09:02:36;;;;;;;6.20;5.60;;;;;;;;;;5016481;28;20199;-87
2023/04/28 09:05:08;;;;;;;6.60;5.70;;;;;;;;;;5016528;28;20327;-87
2023/04/28 09:07:36;;;;;;;4.93;4.55;;;;;;;;;;5016079;28;20306;-87
2023/04/28 09:10:21;;;;;;;5.90;5.40;;;;;;;;;;5015821;28;20234;-88
2023/04/28 09:12:51;;;;;;;5.47;4.68;;;;;;;;;;5016461;28;20284;-88
2023/04/28 09:15:33;;;;;;;4.53;4.13;;;;;;;;;;5016396;28;20323;-88
2023/04/28 09:18:01;;;;;;;5.85;4.72;;;;;;;;;;5015602;28;20219;-87
2023/04/28 09:20:32;;;;;;;5.78;4.70;;;;;;;;;;5016363;28;20391;-88
2023/04/28 09:23:16;;;;;;;4.40;4.00;;;;;;;;;;5016624;28;20205;-88
2023/04/28 09:26:00;;;;;;;5.35;4.78;;;;;;;;;;5016154;28;20229;-87
2023/04/28 09:28:28;;;;;;;4.57;4.18;;;;;;;;;;5016022;28;20274;-88
2023/04/28 09:30:56;;;;;;;4.85;4.45;;;;;;;;;;5016223;28;20218;-88
2023/04/28 09:33:23;;;;;;;5.45;4.95;;;;;;;;;;5017098;28;20238;-85
2023/04/28 09:35:53;;;;;;;8.35;5.15;;;;;;;;;;5021369;28;20246;-85
2023/04/28 09:38:22;;;;;;;4.72;4.32;;;;;;;;;;5020935;28;20213;-85
2023/04/28 09:40:56;;;;;;;6.88;5.30;;;;;;;;;;5021245;28;20234;-85
2023/04/28 09:43:31;;;;;;;4.57;4.20;;;;;;;;;;5019935;28;20274;-84
2023/04/28 09:46:00;;;;;;;5.80;5.18;;;;;;;;;;5020371;28;20306;-86
2023/04/28 09:48:32;;;;;;;5.30;4.80;;;;;;;;;;5000408;28;20287;-85
2023/04/28 09:51:05;;;;;;;5.95;5.43;;;;;;;;;;5000326;28;20227;-86
2023/04/28 09:53:33;;;;;;;5.93;5.32;;;;;;;;;;5000828;28;20188;-85
2023/04/28 09:56:03;;;;;;;5.53;5.10;;;;;;;;;;5001219;28;20224;-85
2023/04/28 09:58:32;;;;;;;5.20;4.68;;;;;;;;;;5001086;28;20227;-84
2023/04/28 10:01:01;;;;;;;4.28;3.78;;;;;;;;;;5001770;28;20204;-85
2023/04/28 10:03:30;;;;;;;4.40;4.00;;;;;;;;;;5002785;28;20246;-85
2023/04/28 10:05:59;;;;;;;5.65;4.22;;;;;;;;;;5003788;28;20602;-85
2023/04/28 10:08:28;;;;;;;5.78;5.00;;;;;;;;;;4999203;28;20291;-86
2023/04/28 10:10:56;;;;;;;5.50;5.00;;;;;;;;;;5000893;28;20728;-85
2023/04/28 10:13:24;;;;;;;6.20;5.38;;;;;;;;;;5000218;28;20200;-86
2023/04/28 10:15:54;;;;;;;7.63;6.07;;;;;;;;;;4998879;28;20226;-85
2023/04/28 10:18:23;;;;;;;7.20;6.05;;;;;;;;;;5018932;28;20306;-85
2023/04/28 10:21:01;;;;;;;6.35;5.05;;;;;;;;;;5019926;28;20577;-85
2023/04/28 10:23:57;;;;;;;6.28;4.35;;;;;;;;;;5021025;28;20290;-84
2023/04/28 10:26:51;;;;;;;6.93;5.35;;;;;;;;;;5020099;28;20549;-85
2023/04/28 10:29:24;;;;;;;8.95;6.18;;;;;;;;;;5019735;28;20219;-84
2023/04/28 10:32:25;;;;;;;8.07;5.80;;;;;;;;;;5018640;28;20211;-85
2023/04/28 10:34:53;;;;;;;6.78;5.20;;;;;;;;;;5017173;28;20234;-84
2023/04/28 10:37:21;;;;;;;6.55;5.70;;;;;;;;;;5018427;28;20285;-85
2023/04/28 10:40:33;;;;;;;6.38;5.78;;;;;;;;;;5017993;28;20648;-85
2023/04/28 10:43:00;;;;;;;6.53;5.88;;;;;;;;;;5012050;28;20202;-84
2023/04/28 10:46:06;;;;;;;8.07;5.70;;;;;;;;;;5020503;28;20258;-85
2023/04/28 10:48:58;;;;;;;5.10;4.70;;;;;;;;;;5020261;28;20205;-85
2023/04/28 10:51:36;;;;;;;7.85;5.75;;;;;;;;;;5019393;28;20722;-84
2023/04/28 10:54:14;;;;;;;6.63;6.03;;;;;;;;;;5019777;28;20261;-84
2023/04/28 10:57:21;;;;;;;7.78;5.75;;;;;;;;;;5020021;28;20201;-84
2023/04/28 10:59:51;;;;;;;7.57;5.97;;;;;;;;;;5019509;28;20282;-85
2023/04/28 11:02:39;;;;;;;8.32;7.30;;;;;;;;;;5018486;28;20571;-84
2023/04/28 11:05:21;;;;;;;7.25;6.50;;;;;;;;;;5019317;28;20222;-86
2023/04/28 11:08:33;;;;;;;7.53;5.88;;;;;;;;;;5021169;28;20199;-85
2023/04/28 11:11:21;;;;;;;8.35;4.75;;;;;;;;;;5021793;28;20217;-84
2023/04/28 11:13:50;;;;;;;7.55;5.40;;;;;;;;;;5021633;28;20298;-84
2023/04/28 11:16:21;;;;;;;5.72;5.22;;;;;;;;;;5019415;28;20199;-85
2023/04/28 11:19:05;;;;;;;6.00;5.40;;;;;;;;;;5019285;28;20289;-85
2023/04/28 11:21:33;;;;;;;6.40;5.65;;;;;;;;;;5019534;28;20210;-85
2023/04/28 11:24:02;;;;;;;8.45;6.32;;;;;;;;;;5018383;28;20206;-85
2023/04/28 11:26:29;;;;;;;6.57;5.88;;;;;;;;;;5019946;28;20274;-85
2023/04/28 11:28:58;;;;;;;6.35;5.75;;;;;;;;;;5019821;28;20202;-84
2023/04/28 11:31:27;;;;;;;6.45;5.85;;;;;;;;;;5018244;28;20229;-84
2023/04/28 11:33:59;;;;;;;6.45;5.80;;;;;;;;;;5017557;28;20233;-85
2023/04/28 11:36:30;;;;;;;8.40;7.18;;;;;;;;;;5016897;28;20188;-86
2023/04/28 11:38:58;;;;;;;9.48;5.97;;;;;;;;;;5016652;28;20233;-87
2023/04/28 11:41:26;;;;;;;6.07;5.57;;;;;;;;;;5017375;28;20198;-84
2023/04/28 11:43:54;;;;;;;5.60;5.10;;;;;;;;;;5017604;28;20203;-86
2023/04/28 11:46:24;;;;;;;9.10;5.10;;;;;;;;;;5017930;28;20245;-84
2023/04/28 11:49:03;;;;;;;4.43;4.05;;;;;;;;;;5018207;28;20753;-85
2023/04/28 11:51:41;;;;;;;7.80;5.55;;;;;;;;;;5017465;28;20211;-85
2023/04/28 11:54:13;;;;;;;6.13;5.53;;;;;;;;;;5016952;28;20195;-85
2023/04/28 11:56:43;;;;;;;5.97;5.13;;;;;;;;;;5017262;28;20595;-87
2023/04/28 11:59:12;;;;;;;5.30;4.88;;;;;;;;;;5015813;28;20698;-85
2023/04/28 12:01:49;;;;;;;4.78;4.38;;;;;;;;;;5016569;28;20233;-85
2023/04/28 12:04:28;;;;;;;5.85;5.20;;;;;;;;;;5016050;28;20223;-85
2023/04/28 12:07:01;;;;;;;5.43;4.93;;;;;;;;;;5017568;28;20720;-86
2023/04/28 12:09:30;;;;;;;6.22;5.63;;;;;;;;;;5013528;28;20211;-84
2023/04/28 12:12:01;;;;;;;6.25;5.65;;;;;;;;;;5014284;28;20223;-85
2023/04/28 12:14:30;;;;;;;6.72;6.13;;;;;;;;;;5014922;28;20249;-84
2023/04/28 12:17:00;;;;;;;4.88;4.38;;;;;;;;;;5016799;28;20198;-84
2023/04/28 12:19:27;;;;;;;5.85;5.35;;;;;;;;;;5019393;28;20233;-85
2023/04/28 12:22:03;;;;;;;4.60;4.20;;;;;;;;;;5017162;28;20194;-86
2023/04/28 12:24:31;;;;;;;7.63;5.95;;;;;;;;;;5016999;28;20313;-85
2023/04/28 12:27:20;;;;;;;5.80;5.13;;;;;;;;;;5018016;28;20291;-85
2023/04/28 12:29:48;;;;;;;5.88;5.32;;;;;;;;;;5017861;28;20203;-85
2023/04/28 12:32:17;;;;;;;6.07;4.68;;;;;;;;;;5019322;28;20604;-85
2023/04/28 12:34:46;;;;;;;5.25;4.75;;;;;;;;;;5017357;28;20644;-85
2023/04/28 12:37:13;;;;;;;4.80;4.35;;;;;;;;;;5017701;28;20795;-85
2023/04/28 12:39:42;;;;;;;5.85;4.82;;;;;;;;;;5017653;28;20265;-84
2023/04/28 12:42:09;;;;;;;5.30;4.78;;;;;;;;;;5017620;28;20212;-86
2023/04/28 12:44:37;;;;;;;6.22;5.60;;;;;;;;;;5016605;28;20273;-86
2023/04/28 12:47:07;;;;;;;5.18;4.65;;;;;;;;;;5016761;28;20291;-85
2023/04/28 12:49:37;;;;;;;5.25;4.82;;;;;;;;;;5016990;28;20285;-84
2023/04/28 12:52:05;;;;;;;4.65;4.25;;;;;;;;;;5016901;28;20285;-85
2023/04/28 12:54:33;;;;;;;6.55;5.63;;;;;;;;;;5016891;28;20655;-86
2023/04/28 12:57:00;;;;;;;5.03;4.63;;;;;;;;;;5016532;28;20686;-85
2023/04/28 12:59:28;;;;;;;5.55;5.07;;;;;;;;;;5016640;28;20721;-84
2023/04/28 13:01:56;;;;;;;5.05;4.38;;;;;;;;;;5017027;28;20671;-85
2023/04/28 13:04:23;;;;;;;5.22;4.60;;;;;;;;;;5016312;28;20227;-85
2023/04/28 13:06:53;;;;;;;5.40;4.93;;;;;;;;;;5016511;28;20199;-85
2023/04/28 13:09:21;;;;;;;6.57;5.97;;;;;;;;;;5015774;28;20577;-85
2023/04/28 13:11:48;;;;;;;5.63;5.13;;;;;;;;;;5016312;28;20195;-85
2023/04/28 13:14:16;;;;;;;6.53;5.93;;;;;;;;;;5016144;28;20318;-86
2023/04/28 13:16:43;;;;;;;5.13;4.63;;;;;;;;;;5016483;28;20218;-84
2023/04/28 13:19:12;;;;;;;4.55;4.15;;;;;;;;;;5016418;28;20233;-84
2023/04/28 13:21:40;;;;;;;4.38;4.00;;;;;;;;;;5016321;28;20199;-85
2023/04/28 13:24:10;;;;;;;4.32;3.97;;;;;;;;;;5016125;28;20199;-85
2023/04/28 13:26:38;;;;;;;4.68;4.30;;;;;;;;;;5016066;28;20270;-85
2023/04/28 13:29:07;;;;;;;5.95;5.20;;;;;;;;;;5014513;28;20199;-86
2023/04/28 13:31:35;;;;;;;4.80;4.13;;;;;;;;;;5016033;28;20203;-84
2023/04/28 13:34:04;;;;;;;4.63;4.22;;;;;;;;;;5016421;28;20230;-86
2023/04/28 13:36:32;;;;;;;5.70;4.90;;;;;;;;;;5015634;28;20226;-87
2023/04/28 13:39:00;;;;;;;5.10;4.70;;;;;;;;;;5015574;28;20234;-85
2023/04/28 13:41:29;;;;;;;6.63;5.75;;;;;;;;;;5015560;28;20199;-86
2023/04/28 13:43:57;;;;;;;6.50;5.88;;;;;;;;;;5015560;28;20226;-88
2023/04/28 13:46:25;;;;;;;5.97;5.47;;;;;;;;;;5015703;28;20290;-86
2023/04/28 13:48:52;;;;;;;5.88;5.28;;;;;;;;;;5015272;28;20226;-85
2023/04/28 13:51:19;;;;;;;7.00;5.38;;;;;;;;;;5015097;28;20604;-85
2023/04/28 13:53:47;;;;;;;6.22;5.57;;;;;;;;;;5015252;28;20222;-85
2023/04/28 13:56:14;;;;;;;5.45;4.95;;;;;;;;;;5015264;28;20258;-85
2023/04/28 13:58:43;;;;;;;7.80;5.40;;;;;;;;;;5015218;28;20207;-86
2023/04/28 14:01:11;;;;;;;6.30;5.70;;;;;;;;;;5015355;28;20223;-87
2023/04/28 14:03:39;;;;;;;7.82;7.03;;;;;;;;;;5014871;28;20214;-85
2023/04/28 14:06:08;;;;;;;5.60;5.10;;;;;;;;;;5014951;28;20223;-85
2023/04/28 14:08:35;;;;;;;6.28;5.47;;;;;;;;;;5014620;28;20302;-85
2023/04/28 14:11:03;;;;;;;7.78;5.65;;;;;;;;;;5014880;28;20199;-86
2023/04/28 14:13:30;;;;;;;5.13;4.63;;;;;;;;;;5014923;28;20314;-86
2023/04/28 14:15:59;;;;;;;5.45;4.95;;;;;;;;;;5015270;28;20313;-85
2023/04/28 14:18:27;;;;;;;7.78;4.75;;;;;;;;;;5015299;28;20708;-85
2023/04/28 14:20:54;;;;;;;5.65;4.65;;;;;;;;;;5015289;28;20211;-84
2023/04/28 14:23:22;;;;;;;4.35;3.97;;;;;;;;;;5014990;28;20270;-86
2023/04/28 14:25:50;;;;;;;6.18;5.57;;;;;;;;;;5014526;28;20223;-85
2023/04/28 14:28:18;;;;;;;5.60;5.10;;;;;;;;;;5015009;28;20727;-85
2023/04/28 14:30:46;;;;;;;4.75;4.35;;;;;;;;;;5015048;28;20199;-86
2023/04/28 14:33:14;;;;;;;5.20;4.07;;;;;;;;;;5014897;28;20688;-86
2023/04/28 14:35:42;;;;;;;4.93;4.53;;;;;;;;;;5014925;28;20295;-85
2023/04/28 14:38:09;;;;;;;4.85;4.38;;;;;;;;;;5014642;28;20203;-86
2023/04/28 14:40:37;;;;;;;5.43;4.97;;;;;;;;;;5013846;28;20290;-86
2023/04/28 14:43:05;;;;;;;4.38;3.97;;;;;;;;;;5014805;28;20230;-86
2023/04/28 14:45:32;;;;;;;5.03;4.50;;;;;;;;;;5014504;28;20692;-85
2023/04/28 14:48:00;;;;;;;4.63;4.18;;;;;;;;;;5014329;28;20203;-85
2023/04/28 14:50:28;;;;;;;5.25;4.75;;;;;;;;;;5014148;28;20235;-85
2023/04/28 14:53:03;;;;;;;4.47;4.07;;;;;;;;;;5014327;28;20238;-85
2023/04/28 14:55:31;;;;;;;5.95;4.63;;;;;;;;;;5014321;28;20306;-85
2023/04/28 14:57:59;;;;;;;3.30;3.10;;;;;;;;;;5013759;28;20211;-85